sensor_id;sensor_type;location;lat;lon;timestamp;P1;durP1;ratioP1;P2;durP2;ratioP2
20593;SDS011;10455;48.732;10.266;2023-02-28T00:00:37;4.87;;;4.43;;
20593;SDS011;10455;48.732;10.266;2023-02-28T00:05:40;5.53;;;4.97;;
20593;SDS011;10455;48.732;10.266;2023-02-28T00:10:42;5.87;;;5.27;;
20593;SDS011;10455;48.732;10.266;2023-02-28T00:15:44;6.30;;;5.23;;
20593;SDS011;10455;48.732;10.266;2023-02-28T00:20:48;8.57;;;5.83;;
20593;SDS011;10455;48.732;10.266;2023-02-28T00:25:50;5.33;;;4.83;;
20593;SDS011;10455;48.732;10.266;2023-02-28T00:30:52;8.80;;;5.93;;
20593;SDS011;10455;48.732;10.266;2023-02-28T00:36:02;8.13;;;5.70;;
20593;SDS011;10455;48.732;10.266;2023-02-28T00:41:05;6.60;;;5.70;;
20593;SDS011;10455;48.732;10.266;2023-02-28T00:46:08;6.70;;;5.43;;
20593;SDS011;10455;48.732;10.266;2023-02-28T00:51:11;5.93;;;5.40;;
20593;SDS011;10455;48.732;10.266;2023-02-28T00:56:13;6.40;;;5.80;;
20593;SDS011;10455;48.732;10.266;2023-02-28T01:01:15;7.67;;;5.70;;
20593;SDS011;10455;48.732;10.266;2023-02-28T01:06:18;6.37;;;5.70;;
20593;SDS011;10455;48.732;10.266;2023-02-28T01:11:20;6.63;;;6.00;;
20593;SDS011;10455;48.732;10.266;2023-02-28T01:16:22;6.93;;;6.00;;
20593;SDS011;10455;48.732;10.266;2023-02-28T01:21:25;7.60;;;5.93;;
20593;SDS011;10455;48.732;10.266;2023-02-28T01:26:27;8.60;;;6.00;;
20593;SDS011;10455;48.732;10.266;2023-02-28T01:31:29;7.10;;;6.40;;
20593;SDS011;10455;48.732;10.266;2023-02-28T01:36:32;7.93;;;6.93;;
20593;SDS011;10455;48.732;10.266;2023-02-28T01:41:34;7.33;;;6.63;;
20593;SDS011;10455;48.732;10.266;2023-02-28T01:46:36;7.87;;;7.10;;
20593;SDS011;10455;48.732;10.266;2023-02-28T01:51:41;7.37;;;6.67;;
20593;SDS011;10455;48.732;10.266;2023-02-28T01:56:47;8.00;;;7.20;;
20593;SDS011;10455;48.732;10.266;2023-02-28T02:01:52;8.13;;;7.33;;
20593;SDS011;10455;48.732;10.266;2023-02-28T02:06:56;8.20;;;7.37;;
20593;SDS011;10455;48.732;10.266;2023-02-28T02:12:00;7.87;;;6.93;;
20593;SDS011;10455;48.732;10.266;2023-02-28T02:17:17;8.17;;;7.37;;
20593;SDS011;10455;48.732;10.266;2023-02-28T02:22:30;9.93;;;7.70;;
20593;SDS011;10455;48.732;10.266;2023-02-28T02:33:58;9.27;;;7.80;;
20593;SDS011;10455;48.732;10.266;2023-02-28T02:39:15;9.57;;;7.83;;
20593;SDS011;10455;48.732;10.266;2023-02-28T02:44:26;9.27;;;7.70;;
20593;SDS011;10455;48.732;10.266;2023-02-28T02:49:35;9.20;;;7.80;;
20593;SDS011;10455;48.732;10.266;2023-02-28T02:54:40;9.47;;;8.53;;
20593;SDS011;10455;48.732;10.266;2023-02-28T02:59:44;9.00;;;7.77;;
20593;SDS011;10455;48.732;10.266;2023-02-28T03:04:48;8.77;;;7.90;;
20593;SDS011;10455;48.732;10.266;2023-02-28T03:09:54;9.90;;;8.90;;
20593;SDS011;10455;48.732;10.266;2023-02-28T03:14:59;8.47;;;7.60;;
20593;SDS011;10455;48.732;10.266;2023-02-28T03:20:13;9.67;;;8.20;;
20593;SDS011;10455;48.732;10.266;2023-02-28T03:25:27;9.17;;;8.13;;
20593;SDS011;10455;48.732;10.266;2023-02-28T03:30:35;11.33;;;8.73;;
20593;SDS011;10455;48.732;10.266;2023-02-28T03:35:45;9.43;;;8.43;;
20593;SDS011;10455;48.732;10.266;2023-02-28T03:40:54;9.93;;;8.93;;
20593;SDS011;10455;48.732;10.266;2023-02-28T03:45:59;11.60;;;8.13;;
20593;SDS011;10455;48.732;10.266;2023-02-28T03:51:07;10.77;;;9.13;;
20593;SDS011;10455;48.732;10.266;2023-02-28T03:56:14;9.10;;;8.20;;
20593;SDS011;10455;48.732;10.266;2023-02-28T04:01:20;11.37;;;8.23;;
20593;SDS011;10455;48.732;10.266;2023-02-28T04:06:26;11.30;;;9.97;;
20593;SDS011;10455;48.732;10.266;2023-02-28T04:11:29;9.97;;;8.70;;
20593;SDS011;10455;48.732;10.266;2023-02-28T04:16:35;10.70;;;9.07;;
20593;SDS011;10455;48.732;10.266;2023-02-28T04:21:41;10.37;;;8.93;;
20593;SDS011;10455;48.732;10.266;2023-02-28T04:26:45;11.00;;;8.80;;
20593;SDS011;10455;48.732;10.266;2023-02-28T04:31:48;10.87;;;9.43;;
20593;SDS011;10455;48.732;10.266;2023-02-28T04:36:52;12.33;;;9.30;;
20593;SDS011;10455;48.732;10.266;2023-02-28T04:41:54;12.60;;;9.90;;
20593;SDS011;10455;48.732;10.266;2023-02-28T04:46:56;11.83;;;9.17;;
20593;SDS011;10455;48.732;10.266;2023-02-28T04:52:00;10.87;;;8.30;;
20593;SDS011;10455;48.732;10.266;2023-02-28T04:57:02;10.23;;;9.07;;
20593;SDS011;10455;48.732;10.266;2023-02-28T05:02:04;13.37;;;9.87;;
20593;SDS011;10455;48.732;10.266;2023-02-28T05:07:08;12.50;;;9.57;;
20593;SDS011;10455;48.732;10.266;2023-02-28T05:12:10;12.40;;;9.57;;
20593;SDS011;10455;48.732;10.266;2023-02-28T05:17:12;12.63;;;10.00;;
20593;SDS011;10455;48.732;10.266;2023-02-28T05:22:15;12.87;;;9.80;;
20593;SDS011;10455;48.732;10.266;2023-02-28T05:27:17;12.67;;;10.57;;
20593;SDS011;10455;48.732;10.266;2023-02-28T05:32:19;12.13;;;10.00;;
20593;SDS011;10455;48.732;10.266;2023-02-28T05:37:22;13.83;;;10.67;;
20593;SDS011;10455;48.732;10.266;2023-02-28T05:42:24;12.23;;;10.27;;
20593;SDS011;10455;48.732;10.266;2023-02-28T05:47:26;11.60;;;9.23;;
20593;SDS011;10455;48.732;10.266;2023-02-28T05:52:29;15.33;;;11.13;;
20593;SDS011;10455;48.732;10.266;2023-02-28T05:57:31;11.77;;;9.77;;
20593;SDS011;10455;48.732;10.266;2023-02-28T06:02:33;12.83;;;10.87;;
20593;SDS011;10455;48.732;10.266;2023-02-28T06:07:36;15.50;;;11.43;;
20593;SDS011;10455;48.732;10.266;2023-02-28T06:12:38;14.97;;;11.03;;
20593;SDS011;10455;48.732;10.266;2023-02-28T06:17:41;13.37;;;9.87;;
20593;SDS011;10455;48.732;10.266;2023-02-28T06:22:45;14.10;;;10.90;;
20593;SDS011;10455;48.732;10.266;2023-02-28T06:27:46;14.00;;;10.37;;
20593;SDS011;10455;48.732;10.266;2023-02-28T06:32:49;13.87;;;11.67;;
20593;SDS011;10455;48.732;10.266;2023-02-28T06:37:53;13.97;;;11.00;;
20593;SDS011;10455;48.732;10.266;2023-02-28T06:42:55;14.43;;;11.10;;
20593;SDS011;10455;48.732;10.266;2023-02-28T06:47:56;13.03;;;11.10;;
20593;SDS011;10455;48.732;10.266;2023-02-28T06:53:01;13.03;;;11.40;;
20593;SDS011;10455;48.732;10.266;2023-02-28T06:58:03;14.37;;;11.03;;
20593;SDS011;10455;48.732;10.266;2023-02-28T07:03:14;14.27;;;11.03;;
20593;SDS011;10455;48.732;10.266;2023-02-28T07:08:19;15.43;;;11.10;;
20593;SDS011;10455;48.732;10.266;2023-02-28T07:13:21;17.57;;;12.57;;
20593;SDS011;10455;48.732;10.266;2023-02-28T07:18:23;15.23;;;11.73;;
20593;SDS011;10455;48.732;10.266;2023-02-28T07:23:27;14.33;;;11.93;;
20593;SDS011;10455;48.732;10.266;2023-02-28T07:28:28;14.50;;;12.87;;
20593;SDS011;10455;48.732;10.266;2023-02-28T07:33:30;14.33;;;11.63;;
20593;SDS011;10455;48.732;10.266;2023-02-28T07:38:34;15.97;;;12.23;;
20593;SDS011;10455;48.732;10.266;2023-02-28T07:43:37;15.40;;;11.73;;
20593;SDS011;10455;48.732;10.266;2023-02-28T07:48:39;16.13;;;11.57;;
20593;SDS011;10455;48.732;10.266;2023-02-28T07:53:43;14.43;;;11.40;;
20593;SDS011;10455;48.732;10.266;2023-02-28T07:58:45;17.60;;;12.90;;
20593;SDS011;10455;48.732;10.266;2023-02-28T08:03:46;15.63;;;12.67;;
20593;SDS011;10455;48.732;10.266;2023-02-28T08:08:50;14.70;;;13.10;;
20593;SDS011;10455;48.732;10.266;2023-02-28T08:13:52;14.13;;;12.00;;
20593;SDS011;10455;48.732;10.266;2023-02-28T08:18:55;14.70;;;11.80;;
20593;SDS011;10455;48.732;10.266;2023-02-28T08:23:58;14.53;;;11.90;;
20593;SDS011;10455;48.732;10.266;2023-02-28T08:29:00;12.50;;;11.07;;
20593;SDS011;10455;48.732;10.266;2023-02-28T08:34:04;15.13;;;11.47;;
20593;SDS011;10455;48.732;10.266;2023-02-28T08:39:08;14.50;;;11.33;;
20593;SDS011;10455;48.732;10.266;2023-02-28T08:44:10;15.27;;;11.50;;
20593;SDS011;10455;48.732;10.266;2023-02-28T08:49:12;15.57;;;13.27;;
20593;SDS011;10455;48.732;10.266;2023-02-28T08:54:15;15.50;;;12.00;;
20593;SDS011;10455;48.732;10.266;2023-02-28T08:59:19;14.03;;;11.03;;
20593;SDS011;10455;48.732;10.266;2023-02-28T09:04:21;13.87;;;12.00;;
20593;SDS011;10455;48.732;10.266;2023-02-28T09:09:24;13.07;;;11.63;;
20593;SDS011;10455;48.732;10.266;2023-02-28T09:14:26;14.97;;;11.60;;
20593;SDS011;10455;48.732;10.266;2023-02-28T09:19:28;12.93;;;11.53;;
20593;SDS011;10455;48.732;10.266;2023-02-28T09:24:32;13.37;;;10.97;;
20593;SDS011;10455;48.732;10.266;2023-02-28T09:29:34;13.80;;;11.07;;
20593;SDS011;10455;48.732;10.266;2023-02-28T09:34:36;14.80;;;11.17;;
20593;SDS011;10455;48.732;10.266;2023-02-28T09:39:40;18.30;;;13.47;;
20593;SDS011;10455;48.732;10.266;2023-02-28T09:44:43;12.17;;;10.57;;
20593;SDS011;10455;48.732;10.266;2023-02-28T09:49:47;12.63;;;11.23;;
20593;SDS011;10455;48.732;10.266;2023-02-28T09:54:51;12.93;;;10.50;;
20593;SDS011;10455;48.732;10.266;2023-02-28T10:00:02;12.33;;;10.23;;
20593;SDS011;10455;48.732;10.266;2023-02-28T10:05:11;11.97;;;10.77;;
20593;SDS011;10455;48.732;10.266;2023-02-28T10:10:21;11.70;;;10.50;;
20593;SDS011;10455;48.732;10.266;2023-02-28T10:15:27;11.00;;;9.90;;
20593;SDS011;10455;48.732;10.266;2023-02-28T10:20:33;11.47;;;10.27;;
20593;SDS011;10455;48.732;10.266;2023-02-28T10:25:39;11.97;;;10.27;;
20593;SDS011;10455;48.732;10.266;2023-02-28T10:30:48;12.20;;;9.83;;
20593;SDS011;10455;48.732;10.266;2023-02-28T10:35:52;11.43;;;10.23;;
20593;SDS011;10455;48.732;10.266;2023-02-28T10:41:04;10.07;;;8.97;;
20593;SDS011;10455;48.732;10.266;2023-02-28T10:46:11;11.10;;;9.30;;
20593;SDS011;10455;48.732;10.266;2023-02-28T10:51:25;11.10;;;9.07;;
20593;SDS011;10455;48.732;10.266;2023-02-28T10:56:37;8.03;;;7.23;;
20593;SDS011;10455;48.732;10.266;2023-02-28T11:01:40;9.97;;;8.97;;
20593;SDS011;10455;48.732;10.266;2023-02-28T11:06:45;11.20;;;10.17;;
20593;SDS011;10455;48.732;10.266;2023-02-28T11:11:48;10.17;;;8.93;;
20593;SDS011;10455;48.732;10.266;2023-02-28T11:16:52;9.97;;;8.97;;
20593;SDS011;10455;48.732;10.266;2023-02-28T11:21:58;10.67;;;9.47;;
20593;SDS011;10455;48.732;10.266;2023-02-28T11:27:03;10.03;;;9.03;;
20593;SDS011;10455;48.732;10.266;2023-02-28T11:32:11;11.63;;;8.63;;
20593;SDS011;10455;48.732;10.266;2023-02-28T11:37:15;13.60;;;10.60;;
20593;SDS011;10455;48.732;10.266;2023-02-28T11:42:23;10.93;;;8.93;;
20593;SDS011;10455;48.732;10.266;2023-02-28T11:47:45;10.23;;;9.23;;
20593;SDS011;10455;48.732;10.266;2023-02-28T11:52:52;11.53;;;8.83;;
20593;SDS011;10455;48.732;10.266;2023-02-28T11:58:01;11.50;;;9.63;;
20593;SDS011;10455;48.732;10.266;2023-02-28T12:03:22;11.77;;;10.17;;
20593;SDS011;10455;48.732;10.266;2023-02-28T12:08:37;10.63;;;9.57;;
20593;SDS011;10455;48.732;10.266;2023-02-28T12:13:52;11.03;;;9.80;;
20593;SDS011;10455;48.732;10.266;2023-02-28T12:19:05;10.50;;;9.40;;
20593;SDS011;10455;48.732;10.266;2023-02-28T12:24:25;12.37;;;9.17;;
20593;SDS011;10455;48.732;10.266;2023-02-28T12:29:43;11.63;;;10.53;;
20593;SDS011;10455;48.732;10.266;2023-02-28T12:34:51;14.13;;;9.67;;
20593;SDS011;10455;48.732;10.266;2023-02-28T12:39:58;12.10;;;10.87;;
20593;SDS011;10455;48.732;10.266;2023-02-28T12:45:10;11.33;;;10.13;;
20593;SDS011;10455;48.732;10.266;2023-02-28T12:50:16;11.90;;;10.37;;
20593;SDS011;10455;48.732;10.266;2023-02-28T12:55:20;11.60;;;9.77;;
20593;SDS011;10455;48.732;10.266;2023-02-28T13:00:32;12.10;;;10.37;;
20593;SDS011;10455;48.732;10.266;2023-02-28T13:06:02;11.43;;;9.80;;
20593;SDS011;10455;48.732;10.266;2023-02-28T13:11:24;12.43;;;10.33;;
20593;SDS011;10455;48.732;10.266;2023-02-28T13:16:29;11.50;;;9.93;;
20593;SDS011;10455;48.732;10.266;2023-02-28T13:21:57;10.50;;;9.37;;
20593;SDS011;10455;48.732;10.266;2023-02-28T13:32:38;13.83;;;11.03;;
20593;SDS011;10455;48.732;10.266;2023-02-28T13:37:42;11.70;;;10.20;;
20593;SDS011;10455;48.732;10.266;2023-02-28T13:42:46;11.00;;;9.90;;
20593;SDS011;10455;48.732;10.266;2023-02-28T13:47:55;11.17;;;9.93;;
20593;SDS011;10455;48.732;10.266;2023-02-28T13:58:41;12.23;;;10.87;;
20593;SDS011;10455;48.732;10.266;2023-02-28T14:04:06;11.73;;;10.53;;
20593;SDS011;10455;48.732;10.266;2023-02-28T14:09:37;11.40;;;10.30;;
20593;SDS011;10455;48.732;10.266;2023-02-28T14:14:54;11.40;;;10.30;;
20593;SDS011;10455;48.732;10.266;2023-02-28T14:19:59;11.90;;;10.33;;
20593;SDS011;10455;48.732;10.266;2023-02-28T14:25:06;11.90;;;10.40;;
20593;SDS011;10455;48.732;10.266;2023-02-28T14:35:53;10.83;;;9.73;;
20593;SDS011;10455;48.732;10.266;2023-02-28T14:41:06;12.13;;;10.40;;
20593;SDS011;10455;48.732;10.266;2023-02-28T14:46:17;11.20;;;9.97;;
20593;SDS011;10455;48.732;10.266;2023-02-28T14:51:21;11.67;;;10.47;;
20593;SDS011;10455;48.732;10.266;2023-02-28T14:56:26;11.53;;;10.10;;
20593;SDS011;10455;48.732;10.266;2023-02-28T15:01:31;14.40;;;10.60;;
20593;SDS011;10455;48.732;10.266;2023-02-28T15:06:35;12.87;;;10.47;;
20593;SDS011;10455;48.732;10.266;2023-02-28T15:11:37;11.60;;;10.03;;
20593;SDS011;10455;48.732;10.266;2023-02-28T15:16:41;12.07;;;10.20;;
20593;SDS011;10455;48.732;10.266;2023-02-28T15:21:47;12.43;;;11.13;;
20593;SDS011;10455;48.732;10.266;2023-02-28T15:26:53;12.57;;;10.93;;
20593;SDS011;10455;48.732;10.266;2023-02-28T15:32:00;12.10;;;10.80;;
20593;SDS011;10455;48.732;10.266;2023-02-28T15:42:30;13.23;;;11.87;;
20593;SDS011;10455;48.732;10.266;2023-02-28T15:47:32;17.17;;;12.93;;
20593;SDS011;10455;48.732;10.266;2023-02-28T15:52:37;16.67;;;13.37;;
20593;SDS011;10455;48.732;10.266;2023-02-28T15:57:41;19.80;;;16.13;;
20593;SDS011;10455;48.732;10.266;2023-02-28T16:02:44;15.43;;;13.80;;
20593;SDS011;10455;48.732;10.266;2023-02-28T16:07:47;19.10;;;14.90;;
20593;SDS011;10455;48.732;10.266;2023-02-28T16:12:49;17.60;;;14.47;;
20593;SDS011;10455;48.732;10.266;2023-02-28T16:17:51;17.03;;;14.17;;
20593;SDS011;10455;48.732;10.266;2023-02-28T16:22:55;21.17;;;16.00;;
20593;SDS011;10455;48.732;10.266;2023-02-28T16:28:01;17.90;;;15.07;;
20593;SDS011;10455;48.732;10.266;2023-02-28T16:33:04;18.47;;;14.73;;
20593;SDS011;10455;48.732;10.266;2023-02-28T16:38:07;18.67;;;16.30;;
20593;SDS011;10455;48.732;10.266;2023-02-28T16:43:10;18.77;;;15.33;;
20593;SDS011;10455;48.732;10.266;2023-02-28T16:48:17;19.67;;;15.47;;
20593;SDS011;10455;48.732;10.266;2023-02-28T16:53:21;21.53;;;15.93;;
20593;SDS011;10455;48.732;10.266;2023-02-28T16:58:23;19.87;;;15.63;;
20593;SDS011;10455;48.732;10.266;2023-02-28T17:03:26;17.53;;;15.50;;
20593;SDS011;10455;48.732;10.266;2023-02-28T17:08:30;23.00;;;17.27;;
20593;SDS011;10455;48.732;10.266;2023-02-28T17:13:32;22.80;;;17.67;;
20593;SDS011;10455;48.732;10.266;2023-02-28T17:18:34;21.33;;;16.60;;
20593;SDS011;10455;48.732;10.266;2023-02-28T17:23:38;21.37;;;18.17;;
20593;SDS011;10455;48.732;10.266;2023-02-28T17:28:40;24.50;;;18.50;;
20593;SDS011;10455;48.732;10.266;2023-02-28T17:33:42;27.93;;;20.60;;
20593;SDS011;10455;48.732;10.266;2023-02-28T17:38:45;39.77;;;25.70;;
20593;SDS011;10455;48.732;10.266;2023-02-28T17:43:47;33.20;;;20.67;;
20593;SDS011;10455;48.732;10.266;2023-02-28T17:48:50;30.40;;;22.00;;
20593;SDS011;10455;48.732;10.266;2023-02-28T17:53:55;30.47;;;21.37;;
20593;SDS011;10455;48.732;10.266;2023-02-28T17:58:57;33.23;;;21.37;;
20593;SDS011;10455;48.732;10.266;2023-02-28T18:03:59;30.80;;;22.17;;
20593;SDS011;10455;48.732;10.266;2023-02-28T18:09:02;37.20;;;23.67;;
20593;SDS011;10455;48.732;10.266;2023-02-28T18:14:04;38.77;;;25.30;;
20593;SDS011;10455;48.732;10.266;2023-02-28T18:19:06;36.77;;;27.13;;
20593;SDS011;10455;48.732;10.266;2023-02-28T18:24:10;37.30;;;25.97;;
20593;SDS011;10455;48.732;10.266;2023-02-28T18:29:15;35.93;;;25.43;;
20593;SDS011;10455;48.732;10.266;2023-02-28T18:34:19;36.93;;;25.57;;
20593;SDS011;10455;48.732;10.266;2023-02-28T18:39:23;41.43;;;27.63;;
20593;SDS011;10455;48.732;10.266;2023-02-28T18:44:25;33.63;;;24.80;;
20593;SDS011;10455;48.732;10.266;2023-02-28T18:49:27;33.20;;;25.73;;
20593;SDS011;10455;48.732;10.266;2023-02-28T18:54:34;31.73;;;22.73;;
20593;SDS011;10455;48.732;10.266;2023-02-28T18:59:36;31.97;;;20.93;;
20593;SDS011;10455;48.732;10.266;2023-02-28T19:04:39;31.23;;;20.93;;
20593;SDS011;10455;48.732;10.266;2023-02-28T19:09:42;27.80;;;20.27;;
20593;SDS011;10455;48.732;10.266;2023-02-28T19:14:44;27.60;;;19.60;;
20593;SDS011;10455;48.732;10.266;2023-02-28T19:19:46;27.00;;;19.67;;
20593;SDS011;10455;48.732;10.266;2023-02-28T19:24:51;31.30;;;20.67;;
20593;SDS011;10455;48.732;10.266;2023-02-28T19:29:53;28.73;;;20.33;;
20593;SDS011;10455;48.732;10.266;2023-02-28T19:34:58;29.77;;;21.87;;
20593;SDS011;10455;48.732;10.266;2023-02-28T19:40:01;31.43;;;21.53;;
20593;SDS011;10455;48.732;10.266;2023-02-28T19:45:03;28.40;;;21.00;;
20593;SDS011;10455;48.732;10.266;2023-02-28T19:50:09;30.10;;;20.43;;
20593;SDS011;10455;48.732;10.266;2023-02-28T19:55:12;28.27;;;20.20;;
20593;SDS011;10455;48.732;10.266;2023-02-28T20:00:15;26.57;;;19.10;;
20593;SDS011;10455;48.732;10.266;2023-02-28T20:05:18;33.47;;;21.67;;
20593;SDS011;10455;48.732;10.266;2023-02-28T20:10:21;65.37;;;38.07;;
20593;SDS011;10455;48.732;10.266;2023-02-28T20:15:23;46.73;;;28.83;;
20593;SDS011;10455;48.732;10.266;2023-02-28T20:20:26;29.07;;;20.10;;
20593;SDS011;10455;48.732;10.266;2023-02-28T20:25:29;31.33;;;21.23;;
20593;SDS011;10455;48.732;10.266;2023-02-28T20:30:31;55.73;;;30.50;;
20593;SDS011;10455;48.732;10.266;2023-02-28T20:35:33;69.97;;;39.20;;
20593;SDS011;10455;48.732;10.266;2023-02-28T20:40:37;34.03;;;23.53;;
20593;SDS011;10455;48.732;10.266;2023-02-28T20:45:39;29.20;;;21.43;;
20593;SDS011;10455;48.732;10.266;2023-02-28T20:50:50;29.67;;;21.20;;
20593;SDS011;10455;48.732;10.266;2023-02-28T20:55:55;32.10;;;22.40;;
20593;SDS011;10455;48.732;10.266;2023-02-28T21:01:00;33.67;;;22.63;;
20593;SDS011;10455;48.732;10.266;2023-02-28T21:06:04;71.70;;;40.23;;
20593;SDS011;10455;48.732;10.266;2023-02-28T21:11:08;46.60;;;30.80;;
20593;SDS011;10455;48.732;10.266;2023-02-28T21:16:12;39.57;;;27.43;;
20593;SDS011;10455;48.732;10.266;2023-02-28T21:21:15;34.77;;;25.00;;
20593;SDS011;10455;48.732;10.266;2023-02-28T21:26:21;35.13;;;23.30;;
20593;SDS011;10455;48.732;10.266;2023-02-28T21:31:24;34.77;;;23.70;;
20593;SDS011;10455;48.732;10.266;2023-02-28T21:36:28;31.33;;;22.30;;
20593;SDS011;10455;48.732;10.266;2023-02-28T21:41:33;32.60;;;22.43;;
20593;SDS011;10455;48.732;10.266;2023-02-28T21:46:36;33.93;;;22.73;;
20593;SDS011;10455;48.732;10.266;2023-02-28T21:51:37;31.77;;;20.83;;
20593;SDS011;10455;48.732;10.266;2023-02-28T21:56:43;33.70;;;22.77;;
20593;SDS011;10455;48.732;10.266;2023-02-28T22:01:45;40.10;;;24.00;;
20593;SDS011;10455;48.732;10.266;2023-02-28T22:06:50;37.47;;;25.10;;
20593;SDS011;10455;48.732;10.266;2023-02-28T22:11:54;39.60;;;25.13;;
20593;SDS011;10455;48.732;10.266;2023-02-28T22:16:56;38.83;;;25.23;;
20593;SDS011;10455;48.732;10.266;2023-02-28T22:21:58;36.10;;;23.80;;
20593;SDS011;10455;48.732;10.266;2023-02-28T22:27:02;36.97;;;24.90;;
20593;SDS011;10455;48.732;10.266;2023-02-28T22:32:06;33.73;;;20.70;;
20593;SDS011;10455;48.732;10.266;2023-02-28T22:37:08;35.97;;;25.17;;
20593;SDS011;10455;48.732;10.266;2023-02-28T22:42:11;36.47;;;24.77;;
20593;SDS011;10455;48.732;10.266;2023-02-28T22:47:13;35.80;;;24.53;;
20593;SDS011;10455;48.732;10.266;2023-02-28T22:52:15;37.60;;;24.47;;
20593;SDS011;10455;48.732;10.266;2023-02-28T22:57:18;34.17;;;23.40;;
20593;SDS011;10455;48.732;10.266;2023-02-28T23:02:21;36.67;;;23.77;;
20593;SDS011;10455;48.732;10.266;2023-02-28T23:07:23;39.87;;;24.63;;
20593;SDS011;10455;48.732;10.266;2023-02-28T23:12:26;36.23;;;23.87;;
20593;SDS011;10455;48.732;10.266;2023-02-28T23:17:29;38.90;;;24.33;;
20593;SDS011;10455;48.732;10.266;2023-02-28T23:22:31;33.90;;;23.50;;
20593;SDS011;10455;48.732;10.266;2023-02-28T23:27:35;46.70;;;25.40;;
20593;SDS011;10455;48.732;10.266;2023-02-28T23:32:37;40.97;;;26.53;;
20593;SDS011;10455;48.732;10.266;2023-02-28T23:37:39;44.53;;;27.20;;
20593;SDS011;10455;48.732;10.266;2023-02-28T23:42:43;41.47;;;25.83;;
20593;SDS011;10455;48.732;10.266;2023-02-28T23:47:45;42.03;;;24.97;;
20593;SDS011;10455;48.732;10.266;2023-02-28T23:52:47;39.40;;;25.97;;
20593;SDS011;10455;48.732;10.266;2023-02-28T23:57:50;40.10;;;24.97;;
